Terminal Aerodrome Forecast
Issued by NWS

Home | Current Version | Previous Version | Text Only | Print | Product List | Glossary On
Versions: 1 2 3 4 5 6 7 8 9 10 11 12 13 14 15 16 17 18
000
FTUS43 KBIS 031106 AAA
TAFMOT
TAF AMD
KMOT 031106Z 0311/0406 13006KT P6SM FEW120
      TEMPO 0311/0314 1/4SM FG
     FM031800 16013KT P6SM FEW120
     FM040300 VRB05KT P6SM SCT080=

USA.gov is the U.S. government's official web portal to all federal, state and local government web resources and services.